createdAt,value
2018-04-22T00:00:20.786Z,7.77
2018-04-22T00:02:48.479Z,7.57
2018-04-22T00:05:16.042Z,7.50
2018-04-22T00:07:43.601Z,8.33
2018-04-22T00:10:11.265Z,7.77
2018-04-22T00:12:38.817Z,7.77
2018-04-22T00:15:06.381Z,7.57
2018-04-22T00:17:33.991Z,7.73
2018-04-22T00:20:01.605Z,7.43
2018-04-22T00:22:29.307Z,6.90
2018-04-22T00:24:56.864Z,6.40
2018-04-22T00:27:24.420Z,6.10
2018-04-22T00:29:51.968Z,6.27
2018-04-22T00:32:19.578Z,7.10
2018-04-22T00:34:47.128Z,6.67
2018-04-22T00:37:14.737Z,6.63
2018-04-22T00:39:42.468Z,6.63
2018-04-22T00:42:10.023Z,5.60
2018-04-22T00:44:37.804Z,5.50
2018-04-22T00:47:05.494Z,5.60
2018-04-22T00:49:33.063Z,6.60
2018-04-22T00:52:00.860Z,6.03
2018-04-22T00:54:28.679Z,7.37
2018-04-22T00:56:56.497Z,6.77
2018-04-22T00:59:24.215Z,7.47
2018-04-22T01:01:51.787Z,6.97
2018-04-22T01:04:19.333Z,7.13
2018-04-22T01:06:47.070Z,7.03
2018-04-22T01:09:14.890Z,7.93
2018-04-22T01:11:42.497Z,6.30
2018-04-22T01:14:10.057Z,5.10
2018-04-22T01:16:37.614Z,5.77
2018-04-22T01:19:05.332Z,8.30
2018-04-22T01:21:32.884Z,7.90
2018-04-22T01:24:00.443Z,7.33
2018-04-22T01:26:28.105Z,6.43
2018-04-22T01:28:55.719Z,4.80
2018-04-22T01:31:23.421Z,5.47
2018-04-22T01:33:51.135Z,6.47
2018-04-22T01:36:18.720Z,5.90
2018-04-22T01:38:46.266Z,6.37
2018-04-22T01:41:13.993Z,7.03
2018-04-22T01:43:41.551Z,6.67
2018-04-22T01:46:09.363Z,6.83
2018-04-22T01:48:36.942Z,7.13
2018-04-22T01:51:04.700Z,6.40
2018-04-22T01:53:32.418Z,7.97
2018-04-22T01:55:59.978Z,6.83
2018-04-22T01:58:27.526Z,6.60
2018-04-22T02:00:55.125Z,6.63
2018-04-22T02:03:22.743Z,5.63
2018-04-22T02:05:50.412Z,6.70
2018-04-22T02:08:17.964Z,7.50
2018-04-22T02:10:45.744Z,7.20
2018-04-22T02:13:13.315Z,7.47
2018-04-22T02:15:41.043Z,7.93
2018-04-22T02:18:08.756Z,7.97
2018-04-22T02:20:36.382Z,8.17
2018-04-22T02:23:05.235Z,7.80
2018-04-22T02:25:32.803Z,7.70
2018-04-22T02:28:00.401Z,8.03
2018-04-22T02:30:28.191Z,7.83
2018-04-22T02:32:55.750Z,7.90
2018-04-22T02:35:23.300Z,7.63
2018-04-22T02:37:50.952Z,6.53
2018-04-22T02:40:18.516Z,8.07
2018-04-22T02:42:46.168Z,7.90
2018-04-22T02:45:13.895Z,8.07
2018-04-22T02:47:41.460Z,7.80
2018-04-22T02:50:09.021Z,6.87
2018-04-22T02:52:36.579Z,7.60
2018-04-22T02:55:04.196Z,7.07
2018-04-22T02:57:31.752Z,7.53
2018-04-22T02:59:59.501Z,6.93
2018-04-22T03:02:27.223Z,7.00
2018-04-22T03:04:54.773Z,6.90
2018-04-22T03:07:22.558Z,7.30
2018-04-22T03:09:50.248Z,7.03
2018-04-22T03:12:17.860Z,7.07
2018-04-22T03:14:45.612Z,6.60
2018-04-22T03:17:13.328Z,6.40
2018-04-22T03:19:41.146Z,7.40
2018-04-22T03:22:08.710Z,7.37
2018-04-22T03:24:36.445Z,7.37
2018-04-22T03:27:04.166Z,7.20
2018-04-22T03:29:31.761Z,6.97
2018-04-22T03:31:59.307Z,7.43
2018-04-22T03:34:26.861Z,7.03
2018-04-22T03:36:54.772Z,6.97
2018-04-22T03:39:22.320Z,6.97
2018-04-22T03:41:50.022Z,7.20
2018-04-22T03:44:17.581Z,7.40
2018-04-22T03:46:45.174Z,8.10
2018-04-22T03:49:12.721Z,7.70
2018-04-22T03:51:40.277Z,7.90
2018-04-22T03:54:07.999Z,7.27
2018-04-22T03:56:35.637Z,7.40
2018-04-22T03:59:03.478Z,7.30
2018-04-22T04:01:31.207Z,8.07
2018-04-22T04:03:59.141Z,7.67
2018-04-22T04:06:26.697Z,7.20
2018-04-22T04:08:54.279Z,7.43
2018-04-22T04:11:21.841Z,7.53
2018-04-22T04:13:49.403Z,9.20
2018-04-22T04:16:17.215Z,10.53
2018-04-22T04:19:05.590Z,11.70
2018-04-22T04:21:44.962Z,7.67
2018-04-22T04:27:26.161Z,5.70
2018-04-22T04:29:53.881Z,5.47
2018-04-22T04:32:21.492Z,6.50
2018-04-22T04:34:49.053Z,6.47
2018-04-22T04:37:16.616Z,6.67
2018-04-22T04:39:44.200Z,6.83
2018-04-22T04:42:11.754Z,7.00
2018-04-22T04:44:39.448Z,7.23
2018-04-22T04:47:07.207Z,7.33
2018-04-22T04:49:34.784Z,8.10
2018-04-22T04:52:02.349Z,7.80
2018-04-22T04:54:30.164Z,8.03
2018-04-22T04:56:57.855Z,7.73
2018-04-22T04:59:25.452Z,8.00
2018-04-22T05:01:53.109Z,8.40
2018-04-22T05:04:20.668Z,7.70
2018-04-22T05:06:48.272Z,7.93
2018-04-22T05:09:16.072Z,7.93
2018-04-22T05:11:43.680Z,7.13
2018-04-22T05:14:12.270Z,7.30
2018-04-22T05:16:39.988Z,7.03
2018-04-22T05:19:07.556Z,6.37
2018-04-22T05:21:35.118Z,6.77
2018-04-22T05:24:02.882Z,5.87
2018-04-22T05:26:30.599Z,7.27
2018-04-22T05:28:58.419Z,6.57
2018-04-22T05:31:25.996Z,15.37
2018-04-22T05:33:53.633Z,19.30
2018-04-22T05:36:21.200Z,7.30
2018-04-22T05:38:48.989Z,6.90
2018-04-22T05:41:16.564Z,8.13
2018-04-22T05:43:44.116Z,4.20
2018-04-22T05:46:11.731Z,3.50
2018-04-22T05:48:39.284Z,3.57
2018-04-22T05:51:06.849Z,3.90
2018-04-22T05:53:34.413Z,2.77
2018-04-22T05:56:01.972Z,3.50
2018-04-22T05:58:29.531Z,3.67
2018-04-22T06:00:57.141Z,3.57
2018-04-22T06:03:24.833Z,3.63
2018-04-22T06:05:52.552Z,3.80
2018-04-22T06:08:20.108Z,3.43
2018-04-22T06:10:47.688Z,2.90
2018-04-22T06:13:15.240Z,3.40
2018-04-22T06:15:42.812Z,3.70
2018-04-22T06:18:10.375Z,3.60
2018-04-22T06:20:37.996Z,4.30
2018-04-22T06:23:05.538Z,4.27
2018-04-22T06:25:33.334Z,8.27
2018-04-22T06:28:00.938Z,4.60
2018-04-22T06:30:28.625Z,13.07
2018-04-22T06:32:56.384Z,5.00
2018-04-22T06:35:24.078Z,5.20
2018-04-22T06:37:51.874Z,4.60
2018-04-22T06:40:19.447Z,4.90
2018-04-22T06:42:47.257Z,4.60
2018-04-22T06:45:14.837Z,4.53
2018-04-22T06:47:42.568Z,4.50
2018-04-22T06:50:10.136Z,4.00
2018-04-22T06:52:37.692Z,5.63
2018-04-22T06:55:05.548Z,10.80
2018-04-22T06:57:33.111Z,6.30
2018-04-22T07:00:00.885Z,5.43
2018-04-22T07:02:28.483Z,4.87
2018-04-22T07:04:56.038Z,5.17
2018-04-22T07:07:23.837Z,4.37
2018-04-22T07:09:51.656Z,5.37
2018-04-22T07:12:19.279Z,5.00
2018-04-22T07:14:46.849Z,4.67
2018-04-22T07:17:15.146Z,4.77
2018-04-22T07:19:44.099Z,5.87
2018-04-22T07:22:11.912Z,15.23
2018-04-22T07:24:39.521Z,4.67
2018-04-22T07:27:07.250Z,4.93
2018-04-22T07:29:34.996Z,4.50
2018-04-22T07:32:02.564Z,4.20
2018-04-22T07:34:30.121Z,4.37
2018-04-22T07:36:57.711Z,4.13
2018-04-22T07:39:25.267Z,4.97
2018-04-22T07:41:52.851Z,4.80
2018-04-22T07:44:20.675Z,3.53
2018-04-22T07:46:48.286Z,3.50
2018-04-22T07:49:15.972Z,3.07
2018-04-22T07:51:43.687Z,3.30
2018-04-22T07:54:11.255Z,3.43
2018-04-22T07:56:38.825Z,3.40
2018-04-22T07:59:06.397Z,6.47
2018-04-22T08:01:33.962Z,7.60
2018-04-22T08:04:01.589Z,7.20
2018-04-22T08:06:29.144Z,3.43
2018-04-22T08:08:56.745Z,3.20
2018-04-22T08:11:24.449Z,3.30
2018-04-22T08:13:52.009Z,3.10
2018-04-22T08:16:19.717Z,3.20
2018-04-22T08:18:47.268Z,2.93
2018-04-22T08:21:15.044Z,3.10
2018-04-22T08:23:42.644Z,3.10
2018-04-22T08:26:10.382Z,4.17
2018-04-22T08:28:37.945Z,3.07
2018-04-22T08:31:05.488Z,3.00
2018-04-22T08:33:33.048Z,4.27
2018-04-22T08:36:00.597Z,3.50
2018-04-22T08:38:28.260Z,3.20
2018-04-22T08:40:55.824Z,3.97
2018-04-22T08:43:23.383Z,3.50
2018-04-22T08:45:51.000Z,3.20
2018-04-22T08:48:18.548Z,3.20
2018-04-22T08:50:46.132Z,3.70
2018-04-22T08:53:13.701Z,3.70
2018-04-22T08:55:41.316Z,3.20
2018-04-22T08:58:08.868Z,3.03
2018-04-22T09:00:36.448Z,3.00
2018-04-22T09:03:04.039Z,2.97
2018-04-22T09:05:31.604Z,2.83
2018-04-22T09:07:59.165Z,2.67
2018-04-22T09:10:26.859Z,2.50
2018-04-22T09:12:54.465Z,2.90
2018-04-22T09:15:23.042Z,3.40
2018-04-22T09:17:50.764Z,2.70
2018-04-22T09:20:18.352Z,3.03
2018-04-22T09:22:46.097Z,2.77
2018-04-22T09:25:13.912Z,2.97
2018-04-22T09:27:41.574Z,2.87
2018-04-22T09:30:09.179Z,2.87
2018-04-22T09:32:36.733Z,3.10
2018-04-22T09:35:04.286Z,2.93
2018-04-22T09:37:31.835Z,2.97
2018-04-22T09:39:59.793Z,3.30
2018-04-22T09:42:27.373Z,3.20
2018-04-22T09:44:55.017Z,3.03
2018-04-22T09:47:22.980Z,3.07
2018-04-22T09:49:50.542Z,2.83
2018-04-22T09:52:18.297Z,3.30
2018-04-22T09:54:45.871Z,3.20
2018-04-22T09:57:13.607Z,2.77
2018-04-22T09:59:41.176Z,3.40
2018-04-22T10:02:14.396Z,3.20
2018-04-22T10:04:42.222Z,3.07
2018-04-22T10:07:09.943Z,3.10
2018-04-22T10:09:38.343Z,3.90
2018-04-22T10:12:05.900Z,3.07
2018-04-22T10:14:33.448Z,2.97
2018-04-22T10:17:00.989Z,3.40
2018-04-22T10:19:28.541Z,2.90
2018-04-22T10:21:56.118Z,2.60
2018-04-22T10:24:23.684Z,2.70
2018-04-22T10:26:51.470Z,3.30
2018-04-22T10:29:19.028Z,3.03
2018-04-22T10:31:46.823Z,3.30
2018-04-22T10:34:14.392Z,3.40
2018-04-22T10:36:42.162Z,3.00
2018-04-22T10:39:09.738Z,3.07
2018-04-22T10:41:37.496Z,3.00
2018-04-22T10:44:05.314Z,3.00
2018-04-22T10:46:32.872Z,2.87
2018-04-22T10:49:00.652Z,3.03
2018-04-22T10:51:28.370Z,3.03
2018-04-22T10:53:55.924Z,2.90
2018-04-22T10:56:23.705Z,3.00
2018-04-22T10:58:51.266Z,2.60
2018-04-22T11:01:19.044Z,3.10
2018-04-22T11:03:46.859Z,3.13
2018-04-22T11:06:14.460Z,3.03
2018-04-22T11:08:42.017Z,3.00
2018-04-22T11:11:09.816Z,3.17
2018-04-22T11:13:37.395Z,2.97
2018-04-22T11:16:04.982Z,3.20
2018-04-22T11:18:32.768Z,2.60
2018-04-22T11:21:00.324Z,2.70
2018-04-22T11:23:27.880Z,2.60
2018-04-22T11:25:55.447Z,2.90
2018-04-22T11:28:22.989Z,2.87
2018-04-22T11:30:50.760Z,2.77
2018-04-22T11:33:18.324Z,2.80
2018-04-22T11:35:45.955Z,2.60
2018-04-22T11:38:13.536Z,2.63
2018-04-22T11:40:41.330Z,2.57
2018-04-22T11:43:09.048Z,3.33
2018-04-22T11:45:36.674Z,3.70
2018-04-22T11:48:04.336Z,3.57
2018-04-22T11:50:32.004Z,3.07
2018-04-22T11:52:59.596Z,3.47
2018-04-22T11:55:27.160Z,3.00
2018-04-22T11:57:54.731Z,3.00
2018-04-22T12:00:22.386Z,3.80
2018-04-22T12:02:49.978Z,4.03
2018-04-22T12:05:17.671Z,2.80
2018-04-22T12:07:45.429Z,3.60
2018-04-22T12:10:13.042Z,3.43
2018-04-22T12:12:40.864Z,4.30
2018-04-22T12:15:08.497Z,3.13
2018-04-22T12:17:36.069Z,3.23
2018-04-22T12:20:03.920Z,2.93
2018-04-22T12:22:31.489Z,2.87
2018-04-22T12:24:59.259Z,3.03
2018-04-22T12:27:26.884Z,2.70
2018-04-22T12:29:54.529Z,3.80
2018-04-22T12:32:22.201Z,3.10
2018-04-22T12:34:49.908Z,2.80
2018-04-22T12:37:17.643Z,3.03
2018-04-22T12:39:45.281Z,2.50
2018-04-22T12:42:13.016Z,2.50
2018-04-22T12:44:40.612Z,2.77
2018-04-22T12:47:08.203Z,2.80
2018-04-22T12:49:35.804Z,2.70
2018-04-22T12:52:04.038Z,2.83
2018-04-22T12:54:31.780Z,2.83
2018-04-22T12:56:59.613Z,2.87
2018-04-22T12:59:27.288Z,3.70
2018-04-22T13:01:55.140Z,2.60
2018-04-22T13:04:22.701Z,3.80
2018-04-22T13:06:50.317Z,2.97
2018-04-22T13:09:18.085Z,3.40
2018-04-22T13:11:45.636Z,2.73
2018-04-22T13:14:13.247Z,2.70
2018-04-22T13:16:40.848Z,2.40
2018-04-22T13:19:08.404Z,3.03
2018-04-22T13:21:35.976Z,3.30
2018-04-22T13:24:03.548Z,3.07
2018-04-22T13:26:31.202Z,3.13
2018-04-22T13:28:58.768Z,2.73
2018-04-22T13:31:26.337Z,2.70
2018-04-22T13:33:53.905Z,2.80
2018-04-22T13:36:21.654Z,2.57
2018-04-22T13:38:49.268Z,2.67
2018-04-22T13:41:16.885Z,2.83
2018-04-22T13:43:44.456Z,2.60
2018-04-22T13:46:12.046Z,2.40
2018-04-22T13:48:39.607Z,2.50
2018-04-22T13:51:07.232Z,2.77
2018-04-22T13:53:34.784Z,2.70
2018-04-22T13:56:02.344Z,2.43
2018-04-22T13:58:29.931Z,2.50
2018-04-22T14:00:57.664Z,2.90
2018-04-22T14:03:25.278Z,2.60
2018-04-22T14:05:53.096Z,2.93
2018-04-22T14:08:20.689Z,2.80
2018-04-22T14:10:48.288Z,2.70
2018-04-22T14:13:16.055Z,2.80
2018-04-22T14:15:48.972Z,2.73
2018-04-22T14:18:16.540Z,2.40
2018-04-22T14:20:44.096Z,2.60
2018-04-22T14:23:11.664Z,2.70
2018-04-22T14:25:39.224Z,2.20
2018-04-22T14:28:07.036Z,2.97
2018-04-22T14:30:34.674Z,2.63
2018-04-22T14:33:02.395Z,2.30
2018-04-22T14:35:30.008Z,2.60
2018-04-22T14:37:57.730Z,3.00
2018-04-22T14:40:26.474Z,2.80
2018-04-22T14:42:54.020Z,2.50
2018-04-22T14:45:33.276Z,2.80
2018-04-22T14:48:01.065Z,2.47
2018-04-22T14:50:28.680Z,2.53
2018-04-22T14:52:56.244Z,3.83
2018-04-22T14:55:23.796Z,3.73
2018-04-22T14:57:51.376Z,2.80
2018-04-22T15:00:18.918Z,3.00
2018-04-22T15:02:46.752Z,2.63
2018-04-22T15:05:14.385Z,2.67
2018-04-22T15:07:42.213Z,2.63
2018-04-22T15:10:09.776Z,2.90
2018-04-22T15:12:37.324Z,2.60
2018-04-22T15:15:04.889Z,2.93
2018-04-22T15:17:32.440Z,2.67
2018-04-22T15:20:00.044Z,2.77
2018-04-22T15:22:27.596Z,5.10
2018-04-22T15:24:55.149Z,2.70
2018-04-22T15:27:22.953Z,2.90
2018-04-22T15:29:50.512Z,3.67
2018-04-22T15:32:18.292Z,4.00
2018-04-22T15:34:45.841Z,3.37
2018-04-22T15:37:13.626Z,4.17
2018-04-22T15:39:41.346Z,3.40
2018-04-22T15:42:08.900Z,3.43
2018-04-22T15:44:36.471Z,3.67
2018-04-22T15:47:04.045Z,4.27
2018-04-22T15:49:31.778Z,3.00
2018-04-22T15:51:59.338Z,3.30
2018-04-22T15:54:27.033Z,3.00
2018-04-22T15:56:54.589Z,3.00
2018-04-22T15:59:22.149Z,2.87
2018-04-22T16:01:49.693Z,2.67
2018-04-22T16:04:17.425Z,3.20
2018-04-22T16:06:45.032Z,2.90
2018-04-22T16:09:12.589Z,3.47
2018-04-22T16:11:40.149Z,3.97
2018-04-22T16:14:07.897Z,3.27
2018-04-22T16:16:35.514Z,3.27
2018-04-22T16:19:03.093Z,3.73
2018-04-22T16:21:30.652Z,3.70
2018-04-22T16:23:58.468Z,4.27
2018-04-22T16:26:26.022Z,3.90
2018-04-22T16:28:53.803Z,3.73
2018-04-22T16:31:21.623Z,3.70
2018-04-22T16:33:49.309Z,3.30
2018-04-22T16:36:16.924Z,3.90
2018-04-22T16:38:44.507Z,3.80
2018-04-22T16:41:12.060Z,3.87
2018-04-22T16:43:39.624Z,3.83
2018-04-22T16:46:07.197Z,3.57
2018-04-22T16:48:34.809Z,3.87
2018-04-22T16:51:02.394Z,3.50
2018-04-22T16:53:30.184Z,4.57
2018-04-22T16:55:57.784Z,4.50
2018-04-22T16:58:25.479Z,5.47
2018-04-22T17:00:53.220Z,5.57
2018-04-22T17:03:20.774Z,5.73
2018-04-22T17:05:48.391Z,4.83
2018-04-22T17:08:15.980Z,4.30
2018-04-22T17:10:43.589Z,4.03
2018-04-22T17:13:11.165Z,5.17
2018-04-22T17:15:38.724Z,6.23
2018-04-22T17:18:06.319Z,7.87
2018-04-22T17:20:33.875Z,7.37
2018-04-22T17:23:01.537Z,6.37
2018-04-22T17:25:29.164Z,4.77
2018-04-22T17:27:56.753Z,4.30
2018-04-22T17:30:24.330Z,5.00
2018-04-22T17:32:51.966Z,5.37
2018-04-22T17:35:19.689Z,5.80
2018-04-22T17:37:47.400Z,18.07
2018-04-22T17:40:15.230Z,20.17
2018-04-22T17:42:42.788Z,7.13
2018-04-22T17:45:10.567Z,5.20
2018-04-22T17:47:38.169Z,5.43
2018-04-22T17:50:05.717Z,5.13
2018-04-22T17:52:33.293Z,7.10
2018-04-22T17:55:00.852Z,6.43
2018-04-22T17:57:28.469Z,6.27
2018-04-22T17:59:56.272Z,7.10
2018-04-22T18:02:23.933Z,7.10
2018-04-22T18:04:51.490Z,20.77
2018-04-22T18:07:19.203Z,8.70
2018-04-22T18:09:46.776Z,7.17
2018-04-22T18:12:14.405Z,7.13
2018-04-22T18:14:42.091Z,5.77
2018-04-22T18:17:09.865Z,7.73
2018-04-22T18:19:37.531Z,7.00
2018-04-22T18:22:05.073Z,4.83
2018-04-22T18:24:32.620Z,4.97
2018-04-22T18:27:00.367Z,6.27
2018-04-22T18:29:28.087Z,5.60
2018-04-22T18:31:55.716Z,8.63
2018-04-22T18:34:23.523Z,9.70
2018-04-22T18:36:51.090Z,9.47
2018-04-22T18:39:18.708Z,9.03
2018-04-22T18:41:46.310Z,6.37
2018-04-22T18:44:13.920Z,6.30
2018-04-22T18:46:41.715Z,5.57
2018-04-22T18:49:09.441Z,5.20
2018-04-22T18:51:37.004Z,5.53
2018-04-22T18:54:04.670Z,5.40
2018-04-22T18:56:32.250Z,6.57
2018-04-22T18:58:59.824Z,8.17
2018-04-22T19:01:27.401Z,7.20
2018-04-22T19:03:55.141Z,7.77
2018-04-22T19:06:23.062Z,7.40
2018-04-22T19:08:50.780Z,7.30
2018-04-22T19:11:18.694Z,7.83
2018-04-22T19:13:46.297Z,6.10
2018-04-22T19:16:13.979Z,5.60
2018-04-22T19:18:41.546Z,6.07
2018-04-22T19:21:09.103Z,6.00
2018-04-22T19:23:36.710Z,5.80
2018-04-22T19:26:04.284Z,5.97
2018-04-22T19:28:32.960Z,6.17
2018-04-22T19:31:00.547Z,6.17
2018-04-22T19:33:28.261Z,6.23
2018-04-22T19:35:55.828Z,6.70
2018-04-22T19:38:23.441Z,6.17
2018-04-22T19:40:51.048Z,5.77
2018-04-22T19:43:18.832Z,5.93
2018-04-22T19:45:46.551Z,6.07
2018-04-22T19:48:14.148Z,5.83
2018-04-22T19:50:41.705Z,5.37
2018-04-22T19:53:09.273Z,5.17
2018-04-22T19:55:36.826Z,5.23
2018-04-22T19:58:04.464Z,4.83
2018-04-22T20:00:32.056Z,4.20
2018-04-22T20:02:59.630Z,4.40
2018-04-22T20:05:27.204Z,6.07
2018-04-22T20:07:54.762Z,8.20
2018-04-22T20:10:22.372Z,8.33
2018-04-22T20:12:50.110Z,7.67
2018-04-22T20:15:17.734Z,7.57
2018-04-22T20:17:45.291Z,5.30
2018-04-22T20:20:12.840Z,5.17
2018-04-22T20:22:40.500Z,6.63
2018-04-22T20:25:08.236Z,5.03
2018-04-22T20:27:36.065Z,5.27
2018-04-22T20:30:03.876Z,6.17
2018-04-22T20:32:31.528Z,5.67
2018-04-22T20:34:59.312Z,5.63
2018-04-22T20:37:26.888Z,5.80
2018-04-22T20:39:54.444Z,5.23
2018-04-22T20:42:22.284Z,6.57
2018-04-22T20:44:50.086Z,6.27
2018-04-22T20:47:17.649Z,5.97
2018-04-22T20:49:45.212Z,6.23
2018-04-22T20:52:12.774Z,5.90
2018-04-22T20:54:40.343Z,5.53
2018-04-22T20:57:07.896Z,5.47
2018-04-22T20:59:35.692Z,5.33
2018-04-22T21:02:03.295Z,6.70
2018-04-22T21:04:31.028Z,6.03
2018-04-22T21:06:58.595Z,6.57
2018-04-22T21:09:26.365Z,7.33
2018-04-22T21:11:53.933Z,7.13
2018-04-22T21:14:21.493Z,6.43
2018-04-22T21:16:49.319Z,6.43
2018-04-22T21:19:16.876Z,5.60
2018-04-22T21:21:44.417Z,6.57
2018-04-22T21:24:11.980Z,6.17
2018-04-22T21:26:39.536Z,6.70
2018-04-22T21:29:07.409Z,6.57
2018-04-22T21:31:34.971Z,6.00
2018-04-22T21:34:02.747Z,6.70
2018-04-22T21:36:30.565Z,6.60
2018-04-22T21:38:58.121Z,6.37
2018-04-22T21:41:25.900Z,6.07
2018-04-22T21:43:53.465Z,6.73
2018-04-22T21:46:21.040Z,6.40
2018-04-22T21:48:48.600Z,6.50
2018-04-22T21:51:16.158Z,7.10
2018-04-22T21:53:43.774Z,6.70
2018-04-22T21:56:11.338Z,6.43
2018-04-22T21:58:39.205Z,7.03
2018-04-22T22:01:06.764Z,6.57
2018-04-22T22:03:34.359Z,6.43
2018-04-22T22:06:01.945Z,6.70
2018-04-22T22:08:29.500Z,6.37
2018-04-22T22:10:57.317Z,6.63
2018-04-22T22:13:25.038Z,6.67
2018-04-22T22:15:52.645Z,6.23
2018-04-22T22:18:20.204Z,6.97
2018-04-22T22:20:47.794Z,7.83
2018-04-22T22:23:15.372Z,6.83
2018-04-22T22:25:42.933Z,7.17
2018-04-22T22:28:11.224Z,6.43
2018-04-22T22:30:38.790Z,6.47
2018-04-22T22:33:06.349Z,6.37
2018-04-22T22:35:33.917Z,5.87
2018-04-22T22:38:01.468Z,7.43
2018-04-22T22:40:29.039Z,7.20
2018-04-22T22:42:56.593Z,7.03
2018-04-22T22:45:24.204Z,7.43
2018-04-22T22:47:51.987Z,7.00
2018-04-22T22:50:19.549Z,7.00
2018-04-22T22:52:47.133Z,7.40
2018-04-22T22:55:14.707Z,6.80
2018-04-22T22:57:42.344Z,7.13
2018-04-22T23:00:09.969Z,6.87
2018-04-22T23:02:37.794Z,7.30
2018-04-22T23:05:05.356Z,7.10
2018-04-22T23:07:32.894Z,7.07
2018-04-22T23:10:00.689Z,7.47
2018-04-22T23:12:28.472Z,7.33
2018-04-22T23:14:56.083Z,6.70
2018-04-22T23:17:23.904Z,6.67
2018-04-22T23:19:51.445Z,6.57
2018-04-22T23:22:19.120Z,7.37
2018-04-22T23:24:46.958Z,7.43
2018-04-22T23:27:14.516Z,6.67
2018-04-22T23:29:42.295Z,7.37
2018-04-22T23:32:09.865Z,7.30
2018-04-22T23:34:37.422Z,6.60
2018-04-22T23:37:05.044Z,7.70
2018-04-22T23:39:32.738Z,7.30
2018-04-22T23:42:00.289Z,6.23
2018-04-22T23:44:27.852Z,6.43
2018-04-22T23:46:55.527Z,6.80
2018-04-22T23:49:23.339Z,6.60
2018-04-22T23:51:51.020Z,6.73
2018-04-22T23:54:18.670Z,7.40
2018-04-22T23:56:46.493Z,7.40
2018-04-22T23:59:14.211Z,6.70
